Arta, Greece

7:54 AM EET on February 14, 2016 (GMT +0200)
IWESTGRE4 | | Change Station
CLOSE
Current Station
Personal Weather Station
Location: NEA KAMARINA (SV1JMO), WEST GREECE
Elevation: 52 ft
Nearby Weather Stations

Elev 52 ft 38.93 °N, 20.85 °E | Updated 3 minutes ago

Mostly Cloudy
Mostly Cloudy
58.8 °F
Feels Like 58.8 °F
N
1.4
Wind Variable Wind from ENE
Gusts 4.5 mph

Today
High -- | Low -- °F
--% Chance of Precip.
Yesterday
High -- | Low -- °F
Precip. -- in
Pressure 29.74 in
Visibility 6.2 miles
Clouds Few 1800 ft
Mostly Cloudy 2500 ft
Mostly Cloudy 8000 ft
Dew Point 59 °F
Humidity 99%
Rainfall 0.00 in
Snow Depth Not available.
7:29 AM 6:11 PM
Waxing Crescent, 38% visible
METAR LGPZ 140520Z 00000KT 9999 FEW018 BKN025 BKN080 13/11 Q1007
Pressure 29.74 in
Visibility 6.2 miles
Clouds Few 1800 ft
Mostly Cloudy 2500 ft
Mostly Cloudy 8000 ft
Dew Point 59 °F
Humidity 99%
Rainfall 0.00 in
Snow Depth Not available.
7:29 AM 6:11 PM
Waxing Crescent, 38% visible
METAR LGPZ 140520Z 00000KT 9999 FEW018 BKN025 BKN080 13/11 Q1007

10-Day Weather Forecast

Almanac

Astronomy

Feb. 14, 2016 Rise Set
Actual Time
Civil Twilight
Nautical Twilight
Astronomical Twilight
Moon
Length of Visible Light
Length of Day
Tomorrow will be .
, % of the Moon is Illuminated

Today's Extremes

Country Highs Country Lows

Community

WunderPhotos

Upload Photos

1,892,751 photos uploaded!

WunderBlog® & News

Nearby

Air Quality

  Air Quality AQ Index Pollutant
Not available.

Snow Depth

Station Depth Elevation

Earthquake Activity

City Distance Mag. Time & Date
Minimum magnitude displayed is 2.5.

Coastal Water Temperatures

Place Temperature

Stations

Nearby Weather Stations

Station Location Temp. Windchill Dew Point Humidity Wind Precip. Elev Updated Type